sensor_id;sensor_type;location;lat;lon;timestamp;pressure;altitude;pressure_sealevel;temperature;humidity
6668;BME280;3370;47.712;9.082;2022-12-05T00:01:43;96867.38;;;1.31;100.00
6668;BME280;3370;47.712;9.082;2022-12-05T00:04:12;96872.41;;;1.34;100.00
6668;BME280;3370;47.712;9.082;2022-12-05T00:06:40;96880.84;;;1.36;100.00
6668;BME280;3370;47.712;9.082;2022-12-05T00:09:08;96886.03;;;1.25;100.00
6668;BME280;3370;47.712;9.082;2022-12-05T00:11:38;96891.84;;;1.33;100.00
6668;BME280;3370;47.712;9.082;2022-12-05T00:14:05;96885.13;;;1.29;100.00
6668;BME280;3370;47.712;9.082;2022-12-05T00:16:34;96880.00;;;1.36;100.00
6668;BME280;3370;47.712;9.082;2022-12-05T00:19:01;96878.34;;;1.31;100.00
6668;BME280;3370;47.712;9.082;2022-12-05T00:21:29;96885.94;;;1.33;100.00
6668;BME280;3370;47.712;9.082;2022-12-05T00:23:56;96888.28;;;1.50;100.00
6668;BME280;3370;47.712;9.082;2022-12-05T00:26:23;96884.81;;;1.56;100.00
6668;BME280;3370;47.712;9.082;2022-12-05T00:28:49;96881.72;;;1.32;100.00
6668;BME280;3370;47.712;9.082;2022-12-05T00:31:19;96882.59;;;1.29;100.00
6668;BME280;3370;47.712;9.082;2022-12-05T00:33:45;96894.34;;;1.37;100.00
6668;BME280;3370;47.712;9.082;2022-12-05T00:36:19;96896.06;;;1.33;100.00
6668;BME280;3370;47.712;9.082;2022-12-05T00:38:46;96908.72;;;1.34;100.00
6668;BME280;3370;47.712;9.082;2022-12-05T00:41:21;96895.28;;;1.26;100.00
6668;BME280;3370;47.712;9.082;2022-12-05T00:43:48;96903.72;;;1.28;100.00
6668;BME280;3370;47.712;9.082;2022-12-05T00:46:25;96913.00;;;1.31;100.00
6668;BME280;3370;47.712;9.082;2022-12-05T00:48:53;96912.91;;;1.36;100.00
6668;BME280;3370;47.712;9.082;2022-12-05T00:51:23;96911.28;;;1.30;100.00
6668;BME280;3370;47.712;9.082;2022-12-05T00:53:51;96913.00;;;1.31;100.00
6668;BME280;3370;47.712;9.082;2022-12-05T00:56:21;96918.88;;;1.31;100.00
6668;BME280;3370;47.712;9.082;2022-12-05T00:58:48;96928.13;;;1.36;100.00
6668;BME280;3370;47.712;9.082;2022-12-05T01:01:34;96943.31;;;1.36;100.00
6668;BME280;3370;47.712;9.082;2022-12-05T01:04:05;96937.28;;;1.49;100.00
6668;BME280;3370;47.712;9.082;2022-12-05T01:06:32;96935.63;;;1.45;100.00
6668;BME280;3370;47.712;9.082;2022-12-05T01:08:59;96949.06;;;1.53;100.00
6668;BME280;3370;47.712;9.082;2022-12-05T01:11:25;96970.97;;;1.57;100.00
6668;BME280;3370;47.712;9.082;2022-12-05T01:13:52;96970.19;;;1.52;100.00
6668;BME280;3370;47.712;9.082;2022-12-05T01:16:28;96965.84;;;1.63;100.00
6668;BME280;3370;47.712;9.082;2022-12-05T01:18:55;96962.53;;;1.60;100.00
6668;BME280;3370;47.712;9.082;2022-12-05T01:21:22;96974.28;;;1.65;100.00
6668;BME280;3370;47.712;9.082;2022-12-05T01:23:48;96965.69;;;1.76;100.00
6668;BME280;3370;47.712;9.082;2022-12-05T01:26:17;96958.88;;;1.81;100.00
6668;BME280;3370;47.712;9.082;2022-12-05T01:28:44;96960.59;;;1.79;100.00
6668;BME280;3370;47.712;9.082;2022-12-05T01:31:31;96962.22;;;1.86;100.00
6668;BME280;3370;47.712;9.082;2022-12-05T01:34:01;96968.16;;;1.83;100.00
6668;BME280;3370;47.712;9.082;2022-12-05T01:36:28;96975.72;;;1.85;100.00
6668;BME280;3370;47.712;9.082;2022-12-05T01:38:55;96977.41;;;1.86;100.00
6668;BME280;3370;47.712;9.082;2022-12-05T01:41:29;96982.44;;;1.90;100.00
6668;BME280;3370;47.712;9.082;2022-12-05T01:46:55;96970.59;;;1.92;100.00
6668;BME280;3370;47.712;9.082;2022-12-05T01:49:37;96965.38;;;2.03;100.00
6668;BME280;3370;47.712;9.082;2022-12-05T01:52:15;96955.38;;;1.94;100.00
6668;BME280;3370;47.712;9.082;2022-12-05T01:54:45;96961.25;;;1.95;100.00
6668;BME280;3370;47.712;9.082;2022-12-05T01:57:13;96966.38;;;1.91;100.00
6668;BME280;3370;47.712;9.082;2022-12-05T01:59:48;96969.66;;;2.01;100.00
6668;BME280;3370;47.712;9.082;2022-12-05T02:02:15;96965.31;;;2.08;100.00
6668;BME280;3370;47.712;9.082;2022-12-05T02:05:06;96973.81;;;2.05;100.00
6668;BME280;3370;47.712;9.082;2022-12-05T02:07:33;96983.03;;;2.11;100.00
6668;BME280;3370;47.712;9.082;2022-12-05T02:09:59;96992.16;;;2.26;100.00
6668;BME280;3370;47.712;9.082;2022-12-05T02:12:25;97000.63;;;2.25;100.00
6668;BME280;3370;47.712;9.082;2022-12-05T02:15:27;96993.72;;;2.36;100.00
6668;BME280;3370;47.712;9.082;2022-12-05T02:18:13;96993.78;;;2.30;100.00
6668;BME280;3370;47.712;9.082;2022-12-05T02:21:28;96978.66;;;2.24;100.00
6668;BME280;3370;47.712;9.082;2022-12-05T02:24:26;96986.88;;;2.41;100.00
6668;BME280;3370;47.712;9.082;2022-12-05T02:27:35;96990.28;;;2.40;100.00
6668;BME280;3370;47.712;9.082;2022-12-05T02:30:27;96988.56;;;2.39;100.00
6668;BME280;3370;47.712;9.082;2022-12-05T02:38:40;96965.97;;;2.24;100.00
6668;BME280;3370;47.712;9.082;2022-12-05T02:41:34;96972.75;;;2.23;100.00
6668;BME280;3370;47.712;9.082;2022-12-05T02:44:13;96968.47;;;2.27;100.00
6668;BME280;3370;47.712;9.082;2022-12-05T02:46:40;96976.75;;;2.38;100.00
6668;BME280;3370;47.712;9.082;2022-12-05T02:49:15;96976.78;;;2.35;100.00
6668;BME280;3370;47.712;9.082;2022-12-05T02:51:51;96971.78;;;2.32;100.00
6668;BME280;3370;47.712;9.082;2022-12-05T02:54:24;96981.88;;;2.34;100.00
6668;BME280;3370;47.712;9.082;2022-12-05T02:56:52;96988.56;;;2.39;100.00
6668;BME280;3370;47.712;9.082;2022-12-05T02:59:19;96979.22;;;2.44;100.00
6668;BME280;3370;47.712;9.082;2022-12-05T03:01:46;96975.06;;;2.37;100.00
6668;BME280;3370;47.712;9.082;2022-12-05T03:04:12;96987.69;;;2.45;100.00
6668;BME280;3370;47.712;9.082;2022-12-05T03:06:41;96992.81;;;2.40;100.00
6668;BME280;3370;47.712;9.082;2022-12-05T03:09:30;96984.41;;;2.35;100.00
6668;BME280;3370;47.712;9.082;2022-12-05T03:12:07;96990.28;;;2.39;100.00
6668;BME280;3370;47.712;9.082;2022-12-05T03:14:43;96991.16;;;2.38;100.00
6668;BME280;3370;47.712;9.082;2022-12-05T03:17:17;96995.34;;;2.40;100.00
6668;BME280;3370;47.712;9.082;2022-12-05T03:20:10;96996.97;;;2.44;100.00
6668;BME280;3370;47.712;9.082;2022-12-05T03:22:59;96998.63;;;2.48;100.00
6668;BME280;3370;47.712;9.082;2022-12-05T03:28:42;97005.31;;;2.56;100.00
6668;BME280;3370;47.712;9.082;2022-12-05T03:31:18;97005.41;;;2.46;100.00
6668;BME280;3370;47.712;9.082;2022-12-05T03:33:49;96997.75;;;2.49;100.00
6668;BME280;3370;47.712;9.082;2022-12-05T03:36:22;97000.31;;;2.46;100.00
6668;BME280;3370;47.712;9.082;2022-12-05T03:39:01;96994.41;;;2.46;100.00
6668;BME280;3370;47.712;9.082;2022-12-05T03:41:57;96999.44;;;2.51;100.00
6668;BME280;3370;47.712;9.082;2022-12-05T03:45:00;97011.25;;;2.52;100.00
6668;BME280;3370;47.712;9.082;2022-12-05T03:47:59;97011.13;;;2.62;100.00
6668;BME280;3370;47.712;9.082;2022-12-05T03:50:30;97002.78;;;2.53;100.00
6668;BME280;3370;47.712;9.082;2022-12-05T03:53:02;97004.56;;;2.47;100.00
6668;BME280;3370;47.712;9.082;2022-12-05T03:55:34;97006.28;;;2.45;100.00
6668;BME280;3370;47.712;9.082;2022-12-05T03:58:09;96996.19;;;2.41;100.00
6668;BME280;3370;47.712;9.082;2022-12-05T04:00:41;96990.28;;;2.39;100.00
6668;BME280;3370;47.712;9.082;2022-12-05T04:03:19;96989.34;;;2.44;100.00
6668;BME280;3370;47.712;9.082;2022-12-05T04:05:55;96991.06;;;2.44;100.00
6668;BME280;3370;47.712;9.082;2022-12-05T04:08:56;96999.44;;;2.51;100.00
6668;BME280;3370;47.712;9.082;2022-12-05T04:11:27;96998.66;;;2.45;100.00
6668;BME280;3370;47.712;9.082;2022-12-05T04:14:04;96994.44;;;2.43;100.00
6668;BME280;3370;47.712;9.082;2022-12-05T04:16:45;96997.84;;;2.43;100.00
6668;BME280;3370;47.712;9.082;2022-12-05T04:19:54;96992.78;;;2.42;100.00
6668;BME280;3370;47.712;9.082;2022-12-05T04:22:42;96989.31;;;2.49;100.00
6668;BME280;3370;47.712;9.082;2022-12-05T04:25:11;96999.34;;;2.58;100.00
6668;BME280;3370;47.712;9.082;2022-12-05T04:28:33;97009.34;;;2.67;100.00
6668;BME280;3370;47.712;9.082;2022-12-05T04:31:14;97015.38;;;2.60;100.00
6668;BME280;3370;47.712;9.082;2022-12-05T04:33:56;97013.72;;;2.58;100.00
6668;BME280;3370;47.712;9.082;2022-12-05T04:36:46;97012.97;;;2.51;100.00
6668;BME280;3370;47.712;9.082;2022-12-05T04:42:13;97017.22;;;2.49;100.00
6668;BME280;3370;47.712;9.082;2022-12-05T04:44:52;97027.41;;;2.47;100.00
6668;BME280;3370;47.712;9.082;2022-12-05T04:47:24;97027.50;;;2.41;100.00
6668;BME280;3370;47.712;9.082;2022-12-05T04:49:52;97013.94;;;2.41;100.00
6668;BME280;3370;47.712;9.082;2022-12-05T04:52:20;97029.94;;;2.46;100.00
6668;BME280;3370;47.712;9.082;2022-12-05T04:55:11;97028.25;;;2.46;100.00
6668;BME280;3370;47.712;9.082;2022-12-05T04:58:00;97038.38;;;2.48;100.00
6668;BME280;3370;47.712;9.082;2022-12-05T05:00:22;97034.88;;;2.58;100.00
6668;BME280;3370;47.712;9.082;2022-12-05T05:03:03;97034.97;;;2.52;100.00
6668;BME280;3370;47.712;9.082;2022-12-05T05:05:32;97039.25;;;2.48;100.00
6668;BME280;3370;47.712;9.082;2022-12-05T05:08:02;97030.78;;;2.46;100.00
6668;BME280;3370;47.712;9.082;2022-12-05T05:10:36;97030.69;;;2.56;100.00
6668;BME280;3370;47.712;9.082;2022-12-05T05:13:04;97031.47;;;2.59;100.00
6668;BME280;3370;47.712;9.082;2022-12-05T05:15:30;97029.78;;;2.58;100.00
6668;BME280;3370;47.712;9.082;2022-12-05T05:17:55;97042.47;;;2.60;100.00
6668;BME280;3370;47.712;9.082;2022-12-05T05:20:21;97041.66;;;2.58;100.00
6668;BME280;3370;47.712;9.082;2022-12-05T05:22:50;97036.56;;;2.59;100.00
6668;BME280;3370;47.712;9.082;2022-12-05T05:25:18;97040.78;;;2.59;100.00
6668;BME280;3370;47.712;9.082;2022-12-05T05:27:52;97046.66;;;2.61;100.00
6668;BME280;3370;47.712;9.082;2022-12-05T05:30:20;97046.72;;;2.59;100.00
6668;BME280;3370;47.712;9.082;2022-12-05T05:32:47;97057.69;;;2.60;100.00
6668;BME280;3370;47.712;9.082;2022-12-05T05:35:13;97068.50;;;2.74;100.00
6668;BME280;3370;47.712;9.082;2022-12-05T05:37:40;97076.84;;;2.84;100.00
6668;BME280;3370;47.712;9.082;2022-12-05T05:40:08;97087.25;;;2.65;100.00
6668;BME280;3370;47.712;9.082;2022-12-05T05:42:35;97089.88;;;2.59;100.00
6668;BME280;3370;47.712;9.082;2022-12-05T05:45:01;97090.75;;;2.55;100.00
6668;BME280;3370;47.712;9.082;2022-12-05T05:47:27;97090.81;;;2.52;100.00
6668;BME280;3370;47.712;9.082;2022-12-05T05:49:53;97086.53;;;2.56;100.00
6668;BME280;3370;47.712;9.082;2022-12-05T05:52:19;97090.75;;;2.55;100.00
6668;BME280;3370;47.712;9.082;2022-12-05T05:54:45;97102.56;;;2.59;100.00
6668;BME280;3370;47.712;9.082;2022-12-05T05:57:10;97113.56;;;2.58;100.00
6668;BME280;3370;47.712;9.082;2022-12-05T05:59:36;97105.09;;;2.59;100.00
6668;BME280;3370;47.712;9.082;2022-12-05T06:02:02;97108.50;;;2.57;100.00
6668;BME280;3370;47.712;9.082;2022-12-05T06:04:28;97107.66;;;2.58;100.00
6668;BME280;3370;47.712;9.082;2022-12-05T06:06:54;97099.84;;;2.70;100.00
6668;BME280;3370;47.712;9.082;2022-12-05T06:09:19;97099.91;;;2.67;100.00
6668;BME280;3370;47.712;9.082;2022-12-05T06:11:45;97104.19;;;2.65;100.00
6668;BME280;3370;47.712;9.082;2022-12-05T06:14:11;97105.94;;;2.60;100.00
6668;BME280;3370;47.712;9.082;2022-12-05T06:16:36;97109.28;;;2.63;100.00
6668;BME280;3370;47.712;9.082;2022-12-05T06:19:02;97115.19;;;2.64;100.00
6668;BME280;3370;47.712;9.082;2022-12-05T06:21:28;97112.66;;;2.64;100.00
6668;BME280;3370;47.712;9.082;2022-12-05T06:23:54;97113.47;;;2.66;100.00
6668;BME280;3370;47.712;9.082;2022-12-05T06:26:21;97123.56;;;2.72;100.00
6668;BME280;3370;47.712;9.082;2022-12-05T06:28:47;97136.28;;;2.71;100.00
6668;BME280;3370;47.712;9.082;2022-12-05T06:31:18;97137.19;;;2.65;100.00
6668;BME280;3370;47.712;9.082;2022-12-05T06:33:45;97143.09;;;2.65;100.00
6668;BME280;3370;47.712;9.082;2022-12-05T06:36:14;97139.63;;;2.73;100.00
6668;BME280;3370;47.712;9.082;2022-12-05T06:38:40;97143.81;;;2.74;100.00
6668;BME280;3370;47.712;9.082;2022-12-05T06:41:13;97141.25;;;2.78;100.00
6668;BME280;3370;47.712;9.082;2022-12-05T06:43:39;97131.13;;;2.74;100.00
6668;BME280;3370;47.712;9.082;2022-12-05T06:46:07;97145.53;;;2.73;100.00
6668;BME280;3370;47.712;9.082;2022-12-05T06:48:34;97140.50;;;2.70;100.00
6668;BME280;3370;47.712;9.082;2022-12-05T06:51:00;97147.25;;;2.71;100.00
6668;BME280;3370;47.712;9.082;2022-12-05T06:53:28;97147.22;;;2.74;100.00
6668;BME280;3370;47.712;9.082;2022-12-05T06:56:05;97150.63;;;2.73;100.00
6668;BME280;3370;47.712;9.082;2022-12-05T06:58:39;97154.03;;;2.72;100.00
6668;BME280;3370;47.712;9.082;2022-12-05T07:01:11;97158.31;;;2.68;100.00
6668;BME280;3370;47.712;9.082;2022-12-05T07:03:56;97160.75;;;2.75;100.00
6668;BME280;3370;47.712;9.082;2022-12-05T07:06:22;97165.81;;;2.76;100.00
6668;BME280;3370;47.712;9.082;2022-12-05T07:08:48;97173.34;;;2.84;100.00
6668;BME280;3370;47.712;9.082;2022-12-05T07:11:14;97173.41;;;2.79;100.00
6668;BME280;3370;47.712;9.082;2022-12-05T07:13:39;97180.94;;;2.85;100.00
6668;BME280;3370;47.712;9.082;2022-12-05T07:16:06;97178.44;;;2.81;100.00
6668;BME280;3370;47.712;9.082;2022-12-05T07:18:32;97177.69;;;2.74;100.00
6668;BME280;3370;47.712;9.082;2022-12-05T07:21:01;97193.78;;;2.73;100.00
6668;BME280;3370;47.712;9.082;2022-12-05T07:23:28;97195.50;;;2.69;100.00
6668;BME280;3370;47.712;9.082;2022-12-05T07:25:54;97198.06;;;2.68;100.00
6668;BME280;3370;47.712;9.082;2022-12-05T07:28:20;97203.13;;;2.69;100.00
6668;BME280;3370;47.712;9.082;2022-12-05T07:30:46;97198.88;;;2.72;100.00
6668;BME280;3370;47.712;9.082;2022-12-05T07:33:11;97192.94;;;2.74;100.00
6668;BME280;3370;47.712;9.082;2022-12-05T07:35:37;97190.41;;;2.73;100.00
6668;BME280;3370;47.712;9.082;2022-12-05T07:38:03;97188.69;;;2.76;100.00
6668;BME280;3370;47.712;9.082;2022-12-05T07:40:29;97196.28;;;2.79;100.00
6668;BME280;3370;47.712;9.082;2022-12-05T07:42:54;97186.06;;;2.82;100.00
6668;BME280;3370;47.712;9.082;2022-12-05T07:45:21;97191.09;;;2.85;100.00
6668;BME280;3370;47.712;9.082;2022-12-05T07:47:46;97195.28;;;2.88;100.00
6668;BME280;3370;47.712;9.082;2022-12-05T07:50:13;97192.75;;;2.90;100.00
6668;BME280;3370;47.712;9.082;2022-12-05T07:52:40;97201.16;;;2.93;100.00
6668;BME280;3370;47.712;9.082;2022-12-05T07:55:06;97211.28;;;2.98;100.00
6668;BME280;3370;47.712;9.082;2022-12-05T07:57:32;97217.97;;;3.03;100.00
6668;BME280;3370;47.712;9.082;2022-12-05T07:59:58;97219.69;;;3.03;100.00
6668;BME280;3370;47.712;9.082;2022-12-05T08:02:24;97226.41;;;3.05;100.00
6668;BME280;3370;47.712;9.082;2022-12-05T08:04:49;97230.72;;;2.99;100.00
6668;BME280;3370;47.712;9.082;2022-12-05T08:07:15;97231.59;;;2.98;100.00
6668;BME280;3370;47.712;9.082;2022-12-05T08:09:41;97239.97;;;3.06;100.00
6668;BME280;3370;47.712;9.082;2022-12-05T08:12:07;97236.59;;;3.04;100.00
6668;BME280;3370;47.712;9.082;2022-12-05T08:14:33;97244.25;;;3.01;100.00
6668;BME280;3370;47.712;9.082;2022-12-05T08:16:59;97248.50;;;3.00;100.00
6668;BME280;3370;47.712;9.082;2022-12-05T08:19:24;97250.19;;;3.00;100.00
6668;BME280;3370;47.712;9.082;2022-12-05T08:21:53;97246.84;;;2.99;100.00
6668;BME280;3370;47.712;9.082;2022-12-05T08:24:19;97247.66;;;3.01;100.00
6668;BME280;3370;47.712;9.082;2022-12-05T08:26:45;97254.38;;;3.05;100.00
6668;BME280;3370;47.712;9.082;2022-12-05T08:29:14;97244.13;;;3.12;100.00
6668;BME280;3370;47.712;9.082;2022-12-05T08:31:46;97237.38;;;3.09;100.00
6668;BME280;3370;47.712;9.082;2022-12-05T08:34:13;97244.03;;;3.21;100.00
6668;BME280;3370;47.712;9.082;2022-12-05T08:36:40;97244.91;;;3.18;100.00
6668;BME280;3370;47.712;9.082;2022-12-05T08:39:10;97254.19;;;3.21;100.00
6668;BME280;3370;47.712;9.082;2022-12-05T08:41:38;97257.50;;;3.24;100.00
6668;BME280;3370;47.712;9.082;2022-12-05T08:44:06;97263.50;;;3.20;100.00
6668;BME280;3370;47.712;9.082;2022-12-05T08:46:35;97262.63;;;3.23;100.00
6668;BME280;3370;47.712;9.082;2022-12-05T08:49:05;97266.84;;;3.24;100.00
6668;BME280;3370;47.712;9.082;2022-12-05T08:51:31;97260.09;;;3.23;100.00
6668;BME280;3370;47.712;9.082;2022-12-05T08:53:57;97257.56;;;3.23;100.00
6668;BME280;3370;47.712;9.082;2022-12-05T08:56:23;97249.88;;;3.24;100.00
6668;BME280;3370;47.712;9.082;2022-12-05T08:58:49;97249.84;;;3.28;100.00
6668;BME280;3370;47.712;9.082;2022-12-05T09:01:21;97258.28;;;3.33;100.00
6668;BME280;3370;47.712;9.082;2022-12-05T09:03:47;97259.06;;;3.36;100.00
6668;BME280;3370;47.712;9.082;2022-12-05T09:06:22;97266.69;;;3.38;100.00
6668;BME280;3370;47.712;9.082;2022-12-05T09:08:52;97267.50;;;3.38;100.00
6668;BME280;3370;47.712;9.082;2022-12-05T09:11:25;97263.22;;;3.42;100.00
6668;BME280;3370;47.712;9.082;2022-12-05T09:13:54;97271.66;;;3.44;100.00
6668;BME280;3370;47.712;9.082;2022-12-05T09:16:25;97275.88;;;3.48;100.00
6668;BME280;3370;47.712;9.082;2022-12-05T09:18:53;97276.69;;;3.50;100.00
6668;BME280;3370;47.712;9.082;2022-12-05T09:21:23;97268.94;;;3.59;100.00
6668;BME280;3370;47.712;9.082;2022-12-05T09:23:50;97271.38;;;3.67;100.00
6668;BME280;3370;47.712;9.082;2022-12-05T09:26:21;97265.44;;;3.68;100.00
6668;BME280;3370;47.712;9.082;2022-12-05T09:28:48;97256.09;;;3.69;100.00
6668;BME280;3370;47.712;9.082;2022-12-05T09:31:21;97250.06;;;3.76;100.00
6668;BME280;3370;47.712;9.082;2022-12-05T09:33:49;97268.72;;;3.75;100.00
6668;BME280;3370;47.712;9.082;2022-12-05T09:36:21;97283.84;;;3.82;100.00
6668;BME280;3370;47.712;9.082;2022-12-05T09:38:47;97292.47;;;3.74;100.00
6668;BME280;3370;47.712;9.082;2022-12-05T09:50:34;97265.38;;;3.71;100.00
6668;BME280;3370;47.712;9.082;2022-12-05T09:56:24;97266.09;;;3.81;100.00
6668;BME280;3370;47.712;9.082;2022-12-05T09:58:53;97267.72;;;3.87;100.00
6668;BME280;3370;47.712;9.082;2022-12-05T10:04:47;97276.00;;;3.99;100.00
6668;BME280;3370;47.712;9.082;2022-12-05T10:07:54;97266.69;;;3.97;100.00
6668;BME280;3370;47.712;9.082;2022-12-05T10:10:47;97260.72;;;3.99;100.00
6668;BME280;3370;47.712;9.082;2022-12-05T10:16:17;97267.22;;;4.19;100.00
6668;BME280;3370;47.712;9.082;2022-12-05T10:19:09;97268.84;;;4.23;100.00
6668;BME280;3370;47.712;9.082;2022-12-05T10:21:48;97269.53;;;4.31;100.00
6668;BME280;3370;47.712;9.082;2022-12-05T10:24:30;97263.63;;;4.29;100.00
6668;BME280;3370;47.712;9.082;2022-12-05T10:27:13;97269.53;;;4.31;100.00
6668;BME280;3370;47.712;9.082;2022-12-05T10:35:36;97257.88;;;4.18;100.00
6668;BME280;3370;47.712;9.082;2022-12-05T10:38:16;97256.16;;;4.18;100.00
6668;BME280;3370;47.712;9.082;2022-12-05T10:40:48;97258.66;;;4.23;100.00
6668;BME280;3370;47.712;9.082;2022-12-05T10:43:27;97257.69;;;4.30;100.00
6668;BME280;3370;47.712;9.082;2022-12-05T10:45:53;97256.72;;;4.37;100.00
6668;BME280;3370;47.712;9.082;2022-12-05T10:48:20;97245.66;;;4.38;100.00
6668;BME280;3370;47.712;9.082;2022-12-05T10:50:55;97246.47;;;4.40;100.00
6668;BME280;3370;47.712;9.082;2022-12-05T10:55:56;97251.34;;;4.53;100.00
6668;BME280;3370;47.712;9.082;2022-12-05T10:58:27;97232.63;;;4.57;100.00
6668;BME280;3370;47.712;9.082;2022-12-05T11:01:06;97235.84;;;4.65;100.00
6668;BME280;3370;47.712;9.082;2022-12-05T11:03:38;97238.31;;;4.70;100.00
6668;BME280;3370;47.712;9.082;2022-12-05T11:06:31;97235.66;;;4.74;100.00
6668;BME280;3370;47.712;9.082;2022-12-05T11:09:25;97237.38;;;4.75;100.00
6668;BME280;3370;47.712;9.082;2022-12-05T11:12:18;97233.16;;;4.73;100.00
6668;BME280;3370;47.712;9.082;2022-12-05T11:15:20;97234.06;;;4.70;100.00
6668;BME280;3370;47.712;9.082;2022-12-05T11:17:48;97223.09;;;4.67;100.00
6668;BME280;3370;47.712;9.082;2022-12-05T11:22:45;97234.31;;;4.55;100.00
6668;BME280;3370;47.712;9.082;2022-12-05T11:25:32;97247.91;;;4.55;100.00
6668;BME280;3370;47.712;9.082;2022-12-05T11:33:22;97244.41;;;4.61;100.00
6668;BME280;3370;47.712;9.082;2022-12-05T11:35:51;97234.22;;;4.61;100.00
6668;BME280;3370;47.712;9.082;2022-12-05T11:38:20;97226.50;;;4.66;100.00
6668;BME280;3370;47.712;9.082;2022-12-05T11:44:00;97229.69;;;4.77;100.00
6668;BME280;3370;47.712;9.082;2022-12-05T11:50:23;97231.94;;;4.92;100.00
6668;BME280;3370;47.712;9.082;2022-12-05T11:53:50;97238.16;;;4.77;100.00
6668;BME280;3370;47.712;9.082;2022-12-05T11:56:35;97226.22;;;4.81;100.00
6668;BME280;3370;47.712;9.082;2022-12-05T12:06:16;97208.34;;;4.84;100.00
6668;BME280;3370;47.712;9.082;2022-12-05T12:11:53;97194.50;;;4.96;100.00
6668;BME280;3370;47.712;9.082;2022-12-05T12:14:43;97198.66;;;4.98;100.00
6668;BME280;3370;47.712;9.082;2022-12-05T12:20:21;97195.75;;;5.18;100.00
6668;BME280;3370;47.712;9.082;2022-12-05T12:26:10;97194.91;;;5.16;98.21
6668;BME280;3370;47.712;9.082;2022-12-05T12:28:42;97185.59;;;5.15;98.65
6668;BME280;3370;47.712;9.082;2022-12-05T12:31:24;97188.81;;;5.24;99.63
6668;BME280;3370;47.712;9.082;2022-12-05T12:34:08;97180.09;;;5.34;99.98
6668;BME280;3370;47.712;9.082;2022-12-05T12:36:51;97179.88;;;5.43;99.81
6668;BME280;3370;47.712;9.082;2022-12-05T12:42:26;97192.47;;;5.51;98.75
6668;BME280;3370;47.712;9.082;2022-12-05T12:48:40;97198.47;;;5.48;97.63
6668;BME280;3370;47.712;9.082;2022-12-05T12:51:14;97197.63;;;5.85;95.37
6668;BME280;3370;47.712;9.082;2022-12-05T12:56:54;97196.03;;;6.50;84.01
6668;BME280;3370;47.712;9.082;2022-12-05T13:02:37;97210.38;;;6.56;85.24
6668;BME280;3370;47.712;9.082;2022-12-05T13:07:53;97205.16;;;6.27;86.42
6668;BME280;3370;47.712;9.082;2022-12-05T13:12:53;97204.03;;;6.38;88.71
6668;BME280;3370;47.712;9.082;2022-12-05T13:15:34;97206.53;;;6.39;87.74
6668;BME280;3370;47.712;9.082;2022-12-05T13:18:02;97198.28;;;6.29;90.57
6668;BME280;3370;47.712;9.082;2022-12-05T13:20:33;97203.63;;;6.20;88.77
6668;BME280;3370;47.712;9.082;2022-12-05T13:23:02;97204.63;;;5.77;87.14
6668;BME280;3370;47.712;9.082;2022-12-05T13:25:31;97202.66;;;5.88;88.92
6668;BME280;3370;47.712;9.082;2022-12-05T13:28:03;97206.59;;;6.03;89.66
6668;BME280;3370;47.712;9.082;2022-12-05T13:30:30;97195.06;;;6.21;89.96
6668;BME280;3370;47.712;9.082;2022-12-05T13:33:00;97199.00;;;6.35;89.87
6668;BME280;3370;47.712;9.082;2022-12-05T13:35:32;97208.19;;;6.42;89.03
6668;BME280;3370;47.712;9.082;2022-12-05T13:38:30;97196.13;;;6.47;88.59
6668;BME280;3370;47.712;9.082;2022-12-05T13:41:17;97195.78;;;6.59;88.02
6668;BME280;3370;47.712;9.082;2022-12-05T13:44:02;97194.56;;;6.72;87.50
6668;BME280;3370;47.712;9.082;2022-12-05T13:46:39;97197.34;;;6.65;86.01
6668;BME280;3370;47.712;9.082;2022-12-05T13:49:36;97195.75;;;6.61;86.17
6668;BME280;3370;47.712;9.082;2022-12-05T13:52:21;97190.41;;;6.70;85.92
6668;BME280;3370;47.712;9.082;2022-12-05T13:55:02;97187.97;;;6.65;86.85
6668;BME280;3370;47.712;9.082;2022-12-05T14:00:22;97182.25;;;6.87;86.51
6668;BME280;3370;47.712;9.082;2022-12-05T14:02:59;97186.75;;;7.08;86.22
6668;BME280;3370;47.712;9.082;2022-12-05T14:05:37;97197.25;;;7.29;84.77
6668;BME280;3370;47.712;9.082;2022-12-05T14:15:52;97193.25;;;8.55;76.72
6668;BME280;3370;47.712;9.082;2022-12-05T14:21:16;97194.00;;;8.07;75.92
6668;BME280;3370;47.712;9.082;2022-12-05T14:24:31;97197.16;;;7.89;78.11
6668;BME280;3370;47.712;9.082;2022-12-05T14:28:10;97189.25;;;7.68;78.99
6668;BME280;3370;47.712;9.082;2022-12-05T14:31:17;97187.31;;;7.48;79.77
6668;BME280;3370;47.712;9.082;2022-12-05T14:34:14;97197.53;;;7.20;78.88
6668;BME280;3370;47.712;9.082;2022-12-05T14:39:51;97199.47;;;6.82;82.47
6668;BME280;3370;47.712;9.082;2022-12-05T14:42:41;97196.41;;;6.69;83.21
6668;BME280;3370;47.712;9.082;2022-12-05T14:48:37;97196.28;;;6.41;84.96
6668;BME280;3370;47.712;9.082;2022-12-05T14:50:49;97188.97;;;6.27;86.13
6668;BME280;3370;47.712;9.082;2022-12-05T15:01:43;97195.06;;;5.85;89.37
6668;BME280;3370;47.712;9.082;2022-12-05T15:04:46;97186.84;;;5.74;90.73
6668;BME280;3370;47.712;9.082;2022-12-05T15:07:25;97188.81;;;5.63;91.44
6668;BME280;3370;47.712;9.082;2022-12-05T15:13:01;97192.59;;;5.45;92.90
6668;BME280;3370;47.712;9.082;2022-12-05T15:15:44;97203.84;;;5.36;93.52
6668;BME280;3370;47.712;9.082;2022-12-05T15:18:25;97204.75;;;5.33;94.21
6668;BME280;3370;47.712;9.082;2022-12-05T15:24:16;97206.78;;;5.17;95.11
6668;BME280;3370;47.712;9.082;2022-12-05T15:26:51;97215.56;;;5.04;95.85
6668;BME280;3370;47.712;9.082;2022-12-05T15:34:35;97220.13;;;4.88;96.25
6668;BME280;3370;47.712;9.082;2022-12-05T15:40:13;97227.41;;;4.63;99.33
6668;BME280;3370;47.712;9.082;2022-12-05T15:42:51;97222.44;;;4.57;100.00
6668;BME280;3370;47.712;9.082;2022-12-05T15:45:27;97232.72;;;4.51;100.00
6668;BME280;3370;47.712;9.082;2022-12-05T15:47:55;97230.16;;;4.51;100.00
6668;BME280;3370;47.712;9.082;2022-12-05T15:50:47;97232.75;;;4.48;100.00
6668;BME280;3370;47.712;9.082;2022-12-05T15:53:40;97240.50;;;4.41;100.00
6668;BME280;3370;47.712;9.082;2022-12-05T15:56:13;97242.28;;;4.38;100.00
6668;BME280;3370;47.712;9.082;2022-12-05T15:58:58;97251.22;;;4.60;99.87
6668;BME280;3370;47.712;9.082;2022-12-05T16:01:28;97257.19;;;4.58;99.29
6668;BME280;3370;47.712;9.082;2022-12-05T16:03:58;97250.84;;;4.34;100.00
6668;BME280;3370;47.712;9.082;2022-12-05T16:06:48;97253.66;;;4.17;100.00
6668;BME280;3370;47.712;9.082;2022-12-05T16:09:30;97258.88;;;4.08;100.00
6668;BME280;3370;47.712;9.082;2022-12-05T16:12:02;97256.38;;;4.06;100.00
6668;BME280;3370;47.712;9.082;2022-12-05T16:14:35;97259.75;;;4.08;100.00
6668;BME280;3370;47.712;9.082;2022-12-05T16:17:04;97261.38;;;4.12;100.00